createdAt,value
2022-11-21T00:03:18.420Z,6.80
2022-11-21T00:07:20.017Z,6.70
2022-11-21T00:11:21.602Z,6.70
2022-11-21T00:15:24.282Z,6.80
2022-11-21T00:19:25.844Z,6.80
2022-11-21T00:23:29.052Z,6.80
2022-11-21T00:27:30.727Z,6.70
2022-11-21T00:31:32.733Z,6.70
2022-11-21T00:35:34.354Z,6.80
2022-11-21T00:39:35.938Z,6.80
2022-11-21T00:43:37.780Z,6.80
2022-11-21T00:47:39.356Z,6.80
2022-11-21T00:51:40.984Z,6.80
2022-11-21T00:55:42.612Z,6.80
2022-11-21T00:59:44.210Z,6.80
2022-11-21T01:03:48.938Z,6.80
2022-11-21T01:07:50.571Z,6.70
2022-11-21T01:11:52.139Z,6.70
2022-11-21T01:15:53.712Z,6.70
2022-11-21T01:19:55.347Z,6.70
2022-11-21T01:23:59.086Z,6.70
2022-11-21T01:28:13.494Z,6.60
2022-11-21T01:32:15.122Z,6.60
2022-11-21T01:36:21.150Z,6.50
2022-11-21T01:40:22.722Z,6.40
2022-11-21T01:44:24.303Z,6.40
2022-11-21T01:48:38.603Z,6.50
2022-11-21T01:52:40.329Z,6.50
2022-11-21T01:56:48.629Z,6.40
2022-11-21T02:00:50.386Z,6.50
2022-11-21T02:04:52.834Z,6.40
2022-11-21T02:08:56.530Z,6.40
2022-11-21T02:12:58.970Z,6.30
2022-11-21T02:17:03.198Z,6.30
2022-11-21T02:21:10.159Z,6.20
2022-11-21T02:25:18.132Z,6.20
2022-11-21T02:29:19.761Z,6.20
2022-11-21T02:33:21.319Z,6.20
2022-11-21T02:37:23.194Z,6.20
2022-11-21T02:41:26.564Z,6.20
2022-11-21T02:45:44.370Z,6.10
2022-11-21T02:49:45.966Z,6.20
2022-11-21T02:53:47.562Z,6.30
2022-11-21T02:57:49.200Z,6.30
2022-11-21T03:01:50.796Z,6.20
2022-11-21T03:05:52.461Z,6.20
2022-11-21T03:09:53.995Z,6.20
2022-11-21T03:13:55.601Z,6.20
2022-11-21T03:17:57.727Z,6.20
2022-11-21T03:21:59.420Z,6.30
2022-11-21T03:26:00.993Z,6.30
2022-11-21T03:30:02.585Z,6.30
2022-11-21T03:34:04.338Z,6.30
2022-11-21T03:38:06.201Z,6.30
2022-11-21T03:42:07.809Z,6.20
2022-11-21T03:46:09.404Z,6.20
2022-11-21T03:50:11.043Z,6.20
2022-11-21T03:54:12.635Z,6.20
2022-11-21T03:58:14.209Z,6.20
2022-11-21T04:02:15.852Z,6.20
2022-11-21T04:06:18.779Z,6.20
2022-11-21T04:10:20.972Z,6.20
2022-11-21T04:14:27.471Z,6.20
2022-11-21T04:18:29.252Z,6.20
2022-11-21T04:22:30.982Z,6.20
2022-11-21T04:26:32.665Z,6.30
2022-11-21T04:30:34.514Z,6.30
2022-11-21T04:34:36.148Z,6.30
2022-11-21T04:38:37.748Z,6.30
2022-11-21T04:42:46.421Z,6.20
2022-11-21T04:46:47.988Z,6.20
2022-11-21T04:50:49.648Z,6.20
2022-11-21T04:54:51.307Z,6.20
2022-11-21T04:58:53.429Z,6.10
2022-11-21T05:02:55.035Z,6.10
2022-11-21T05:06:58.449Z,6.10
2022-11-21T05:11:18.545Z,6.20
2022-11-21T05:15:24.428Z,6.20
2022-11-21T05:19:26.520Z,6.20
2022-11-21T05:23:28.103Z,6.20
2022-11-21T05:27:29.666Z,6.20
2022-11-21T05:31:31.236Z,6.20
2022-11-21T05:35:32.837Z,6.20
2022-11-21T05:39:34.521Z,6.20
2022-11-21T05:43:48.947Z,6.20
2022-11-21T05:47:50.557Z,6.20
2022-11-21T05:51:52.154Z,6.20
2022-11-21T05:55:53.781Z,6.20
2022-11-21T05:59:55.376Z,6.20
2022-11-21T06:03:56.962Z,6.20
2022-11-21T06:07:58.591Z,6.20
2022-11-21T06:12:00.183Z,6.10
2022-11-21T06:16:06.516Z,6.10
2022-11-21T06:20:08.518Z,6.10
2022-11-21T06:24:10.191Z,6.10
2022-11-21T06:28:11.834Z,6.10
2022-11-21T06:32:13.455Z,6.20
2022-11-21T06:36:17.359Z,6.10
2022-11-21T06:40:19.062Z,6.20
2022-11-21T06:44:20.690Z,6.10
2022-11-21T06:48:22.506Z,6.10
2022-11-21T06:52:25.346Z,6.10
2022-11-21T06:56:28.309Z,6.10
2022-11-21T07:00:30.016Z,6.10
2022-11-21T07:04:31.918Z,6.20
2022-11-21T07:08:37.846Z,6.20
2022-11-21T07:12:58.466Z,6.20
2022-11-21T07:17:00.116Z,6.20
2022-11-21T07:21:04.436Z,6.20
2022-11-21T07:25:13.641Z,6.20
2022-11-21T07:29:17.560Z,6.20
2022-11-21T07:33:19.317Z,6.20
2022-11-21T07:37:42.650Z,6.20
2022-11-21T07:46:09.650Z,6.30
2022-11-21T07:50:15.482Z,6.20
2022-11-21T07:54:20.951Z,6.20
2022-11-21T07:58:38.127Z,6.20
2022-11-21T08:02:43.699Z,6.30
2022-11-21T08:06:51.611Z,6.20
2022-11-21T08:11:13.299Z,6.30
2022-11-21T08:17:11.716Z,6.30
2022-11-21T08:19:44.920Z,6.30
2022-11-21T08:45:07.768Z,6.40
2022-11-21T09:15:22.076Z,7.00
2022-11-21T09:19:53.627Z,6.90
2022-11-21T09:24:04.896Z,6.90
2022-11-21T09:28:44.421Z,6.90
2022-11-21T09:32:54.363Z,6.90
2022-11-21T09:37:39.286Z,6.90
2022-11-21T09:42:00.496Z,6.80
2022-11-21T09:46:14.129Z,6.80
2022-11-21T09:54:31.845Z,6.70
2022-11-21T09:58:42.845Z,6.70
2022-11-21T10:02:44.485Z,7.00
2022-11-21T10:06:49.535Z,7.10
2022-11-21T10:10:55.773Z,7.10
2022-11-21T10:15:12.278Z,7.00
2022-11-21T10:24:18.700Z,7.20
2022-11-21T10:33:22.305Z,7.30
2022-11-21T10:37:40.881Z,7.70
2022-11-21T10:42:05.327Z,7.70
2022-11-21T10:46:09.989Z,7.70
2022-11-21T10:50:20.583Z,7.60
2022-11-21T10:54:59.700Z,7.70
2022-11-21T10:59:11.648Z,7.60
2022-11-21T11:03:16.595Z,7.60
2022-11-21T11:07:26.588Z,7.60
2022-11-21T11:11:28.442Z,7.60
2022-11-21T11:15:30.340Z,7.70
2022-11-21T11:19:38.702Z,7.70
2022-11-21T11:23:42.286Z,7.70
2022-11-21T11:27:43.917Z,7.80
2022-11-21T11:31:52.145Z,7.90
2022-11-21T11:35:54.089Z,8.00
2022-11-21T11:40:18.947Z,7.90
2022-11-21T11:44:43.795Z,7.70
2022-11-21T11:49:11.313Z,7.70
2022-11-21T11:53:11.380Z,7.80
2022-11-21T11:57:13.859Z,7.80
2022-11-21T12:01:21.151Z,8.10
2022-11-21T12:05:27.675Z,8.10
2022-11-21T12:09:35.436Z,8.30
2022-11-21T12:13:37.584Z,8.10
2022-11-21T12:17:42.263Z,8.20
2022-11-21T12:21:43.948Z,8.10
2022-11-21T12:26:05.744Z,8.00
2022-11-21T12:30:33.384Z,8.00
2022-11-21T12:34:59.404Z,8.00
2022-11-21T12:39:17.960Z,8.00
2022-11-21T12:43:28.789Z,7.90
2022-11-21T12:47:30.387Z,7.80
2022-11-21T12:51:58.908Z,7.90
2022-11-21T12:56:02.699Z,7.90
2022-11-21T13:00:11.866Z,8.00
2022-11-21T13:08:38.450Z,8.00
2022-11-21T13:12:47.986Z,7.90
2022-11-21T13:17:08.449Z,8.00
2022-11-21T13:21:28.947Z,8.00
2022-11-21T13:25:40.418Z,8.10
2022-11-21T13:30:02.035Z,8.10
2022-11-21T13:34:04.830Z,8.00
2022-11-21T13:38:08.177Z,8.10
2022-11-21T13:42:28.939Z,8.00
2022-11-21T13:46:59.805Z,8.10
2022-11-21T13:51:10.598Z,8.10
2022-11-21T13:55:18.232Z,8.10
2022-11-21T13:59:27.971Z,8.10
2022-11-21T14:03:50.029Z,8.10
2022-11-21T14:07:51.738Z,8.00
2022-11-21T14:11:53.442Z,7.90
2022-11-21T14:16:12.000Z,7.90
2022-11-21T14:20:17.144Z,7.90
2022-11-21T14:24:19.643Z,7.90
2022-11-21T14:28:24.219Z,7.90
2022-11-21T14:32:27.831Z,7.80
2022-11-21T14:36:30.216Z,7.80
2022-11-21T14:40:32.011Z,7.80
2022-11-21T14:44:34.413Z,7.70
2022-11-21T14:48:38.350Z,7.70
2022-11-21T14:52:40.035Z,7.60
2022-11-21T14:56:41.679Z,7.50
2022-11-21T15:01:02.306Z,7.40
2022-11-21T15:05:05.953Z,7.40
2022-11-21T15:10:25.329Z,7.40
2022-11-21T15:14:06.759Z,7.40
2022-11-21T15:22:25.463Z,7.30
2022-11-21T15:26:31.353Z,7.40
2022-11-21T15:30:33.536Z,7.30
2022-11-21T15:34:37.413Z,7.30
2022-11-21T15:38:47.089Z,7.30
2022-11-21T15:42:50.110Z,7.40
2022-11-21T15:46:52.218Z,7.30
2022-11-21T15:50:58.848Z,7.40
2022-11-21T15:55:00.659Z,7.40
2022-11-21T15:59:03.151Z,7.40
2022-11-21T16:03:05.113Z,7.40
2022-11-21T16:07:09.266Z,7.40
2022-11-21T16:11:24.431Z,7.50
2022-11-21T16:15:26.051Z,7.50
2022-11-21T16:19:27.964Z,7.50
2022-11-21T16:23:48.112Z,7.40
2022-11-21T16:28:08.539Z,7.50
2022-11-21T16:32:10.305Z,7.50
2022-11-21T16:36:11.891Z,7.50
2022-11-21T16:40:13.548Z,7.40
2022-11-21T16:44:15.881Z,7.30
2022-11-21T16:48:17.440Z,7.30
2022-11-21T16:52:19.090Z,7.30
2022-11-21T16:56:20.671Z,7.30
2022-11-21T17:00:24.243Z,7.30
2022-11-21T17:04:26.270Z,7.20
2022-11-21T17:08:28.577Z,7.30
2022-11-21T17:12:31.190Z,7.30
2022-11-21T17:16:33.203Z,7.30
2022-11-21T17:20:34.955Z,7.30
2022-11-21T17:24:36.635Z,7.30
2022-11-21T17:28:42.416Z,7.30
2022-11-21T17:32:47.098Z,7.30
2022-11-21T17:36:48.825Z,7.30
2022-11-21T17:41:03.619Z,7.30
2022-11-21T17:45:05.923Z,7.30
2022-11-21T17:49:07.577Z,7.30
2022-11-21T17:53:09.183Z,7.30
2022-11-21T17:57:10.848Z,7.20
2022-11-21T18:01:18.562Z,7.20
2022-11-21T18:05:20.260Z,7.20
2022-11-21T18:09:22.285Z,7.20
2022-11-21T18:13:23.864Z,7.20
2022-11-21T18:17:25.675Z,7.20
2022-11-21T18:21:30.133Z,7.20
2022-11-21T18:25:34.901Z,7.30
2022-11-21T18:29:37.384Z,7.30
2022-11-21T18:33:42.547Z,7.30
2022-11-21T18:37:44.391Z,7.30
2022-11-21T18:41:47.212Z,7.30
2022-11-21T18:50:37.891Z,7.30
2022-11-21T18:54:40.448Z,7.30
2022-11-21T18:58:43.242Z,7.30
2022-11-21T19:02:45.646Z,7.30
2022-11-21T19:06:47.528Z,7.30
2022-11-21T19:10:57.888Z,7.30
2022-11-21T19:14:59.811Z,7.30
2022-11-21T19:23:29.775Z,7.20
2022-11-21T19:27:33.789Z,7.20
2022-11-21T19:31:39.333Z,7.30
2022-11-21T19:35:52.288Z,7.30
2022-11-21T19:39:54.112Z,7.30
2022-11-21T19:43:57.773Z,7.30
2022-11-21T19:47:59.741Z,7.30
2022-11-21T19:52:03.847Z,7.30
2022-11-21T19:56:09.690Z,7.30
2022-11-21T20:00:11.813Z,7.30
2022-11-21T20:04:13.607Z,7.30
2022-11-21T20:08:18.010Z,7.30
2022-11-21T20:12:19.987Z,7.30
2022-11-21T20:16:26.611Z,7.30
2022-11-21T20:20:28.495Z,7.30
2022-11-21T20:24:30.671Z,7.30
2022-11-21T20:28:34.157Z,7.30
2022-11-21T20:32:35.938Z,7.20
2022-11-21T20:36:38.590Z,7.20
2022-11-21T20:40:43.058Z,7.10
2022-11-21T20:53:52.348Z,7.10
2022-11-21T21:02:09.043Z,7.10
2022-11-21T21:06:13.332Z,7.00
2022-11-21T21:10:15.606Z,7.00
2022-11-21T21:14:17.742Z,7.00
2022-11-21T21:18:21.695Z,7.00
2022-11-21T21:22:23.732Z,7.00
2022-11-21T21:26:26.869Z,6.90
2022-11-21T21:30:32.329Z,6.90
2022-11-21T21:34:34.093Z,6.90
2022-11-21T21:42:56.456Z,6.80
2022-11-21T21:46:58.407Z,6.80
2022-11-21T21:51:05.308Z,6.70
2022-11-21T21:55:08.003Z,6.70
2022-11-21T21:59:14.534Z,6.70
2022-11-21T22:03:18.639Z,6.70
2022-11-21T22:07:20.516Z,6.70
2022-11-21T22:11:28.137Z,6.60
2022-11-21T22:15:29.828Z,6.70
2022-11-21T22:19:31.754Z,6.60
2022-11-21T22:23:33.914Z,6.60
2022-11-21T22:27:35.953Z,6.60
2022-11-21T22:31:38.071Z,6.70
2022-11-21T22:35:41.417Z,6.60
2022-11-21T22:39:43.377Z,6.60
2022-11-21T22:43:49.151Z,6.60
2022-11-21T22:47:50.929Z,6.60
2022-11-21T22:51:57.253Z,6.50
2022-11-21T22:55:59.648Z,6.50
2022-11-21T23:00:01.415Z,6.50
2022-11-21T23:04:03.634Z,6.50
2022-11-21T23:08:05.439Z,6.60
2022-11-21T23:12:07.325Z,6.60
2022-11-21T23:16:09.295Z,6.60
2022-11-21T23:20:11.391Z,6.70
2022-11-21T23:24:13.177Z,6.70
2022-11-21T23:28:14.985Z,6.70
2022-11-21T23:32:17.620Z,6.80
2022-11-21T23:36:19.420Z,6.80
2022-11-21T23:40:21.118Z,6.80
2022-11-21T23:44:22.822Z,6.80
2022-11-21T23:48:24.686Z,6.80
2022-11-21T23:52:26.432Z,6.90
2022-11-21T23:56:28.088Z,7.00
